Relevés horaires Chievres (Belgique)


Relevés horaires à Chievres - Lundi 13 Avr. 2026
Heure UTC1 Température [°C] Vent [km/h] Hum. [%] Pres.4 [hPa] Visi. [Km] Nébu. [octa] Préc.5 [mm] Cond.
2m. Res. Ros. Dir.2 Vit. Moy. Raf.3
23:00 5.3 5.3 3.6 NNO 1.9 -- 3.7 89 1016.6(0.8/3h) 35 -- -- --
22:00 6.6 6.6 3.6 NNO 1.9 -- 3.7 81 1016.2(1.5/3h) 14 -- -- --
21:00 7.5 7.5 3.2 NNO 1.9 -- 11.1 74 1015.7(1.6/3h) >70 -- -- --
20:00 8.3 8.3 3.6 NNO 3.7 -- 7.4 72 1015.6(2.1/3h) >70 -- -- --
19:00 9.3 9.3 3.9 N 3.7 -- 11.1 69 1014.6(1.5/3h) >70 -- -- --
18:00 10.6 9.8 6.1 NNO 7.4 -- 13.0 74 1014(1.0/3h) 45 -- -- --
17:00 12.5 12.5 5.2 NO 3.7 -- 7.4 61 1013.2(0.1/3h) >70 -- -- --
16:00 12.8 12.8 5.0 ONO 3.7 -- 5.6 59 1012.8(-0.2/3h) >70 -- -- --
15:00 12.6 12.6 3.7 NNO 1.9 -- 3.7 55 1012.8(-0.2/3h) >70 -- -- --
14:00 12.8 12.8 2.9 NNO 1.9 -- 3.7 51 1013(0.0/3h) >70 -- -- --
13:00 12.3 12.3 3.6 NNO 1.9 -- 1.9 55 1013.2(0.0/3h) >70 -- -- --
12:00 12.0 12.0 3.8 NNO 1.9 -- 1.9 57 1013.2(0.0/3h) >70 -- -- --
11:00 12.0 12.0 5.4 NNO 1.9 -- 1.9 64 1013.1(-0.1/3h) >70 -- -- --
10:00 11.4 11.4 5.4 NNO 1.9 -- 1.9 67 1013.2(-0.3/3h) >70 -- -- --
09:00 9.7 9.7 5.4 NNO 1.9 -- 1.9 75 1013.2(-0.2/3h) 17 -- -- --
08:00 8.1 8.1 5.9 NNO 1.9 -- 1.9 86 1013.2(-0.2/3h) 15 -- -- --
07:00 6.5 6.5 4.9 NNO 1.9 -- 1.9 89 1013.6(0.0/3h) 45 -- -- --
06:00 4.9 4.9 3.8 NNO 1.9 -- 3.7 93 1013.6(-0.1/3h) 14 -- -- --
05:00 4.2 4.2 3.0 NNO 1.9 -- 1.9 92 1013.7(-0.2/3h) 16 -- -- --
04:00 4.0 4.0 2.8 NNO 1.9 -- 3.7 92 1013.6(-0.3/3h) 16 -- -- --
03:00 4.0 4.0 2.6 NNO 1.9 -- 3.7 91 1013.7(-0.5/3h) 14 -- -- --
02:00 3.9 3.9 2.8 ESE 3.7 -- 3.7 93 1013.8(-0.6/3h) 14 -- -- --
01:00 4.4 4.4 3.1 NNO 1.9 -- 1.9 91 1013.8(-0.5/3h) 15 -- -- --
00:00 5.3 5.3 3.3 NNO 1.9 -- 7.4 87 1014.2(-0.4/3h) 45 -- -- --

1 Coordinated Universal Time. Actuellement il est 06:00 locale et 04:00 UTC.

2 Le vent souffle depuis la direction indiquée vers la direction oposée.

3 Les rafales max. sont disponible 40 min après l'heure du relevé.

4 Pour les stations d'altitude (plus de 600m) le géopotentiel du niveau le plus proche de la pression obligatoire est indiqué.

5 Les stations disposant d'un diffuseur peuvent indiquer "trace". Cela signifie que des précipitations ont touchés le sol mais que la quantité est inférieure à 0.1 mm.

Récapitulatif de la journée
Température [°C] Vent [km/h] Ensoleillement4 [h] Precipitations totale5 [mm] Pression [Hpa]
Min1 Max.2 Moy.3 Max. Min Max.
3.5 13.1 0 13.0 0 h 0 min 0 1012.8 1016.6

1 Température minimale relevée entre 18:00 UTC la veille et 18:00 UTC le jour donné.

2 Température maximale relevée entre 06:00 UTC le jour donné et 06:00 UTC le lendemain.

3 Vent moyen de la journée basé sur les relevés horaires.

4 Ensoleillement en heures relevé entre 06:00 UTC la veille et 06:00 UTC le jour donné.

5 Précipitations totales tombées entre 06:00 UTC la jour donné et 06:00 UTC le lendemain.

Graphiques horaires